createdAt,value
2023-05-21T00:00:18.023Z,14.60
2023-05-21T00:01:19.596Z,15.90
2023-05-21T00:02:21.367Z,15.60
2023-05-21T00:03:27.179Z,17.23
2023-05-21T00:04:29.655Z,15.90
2023-05-21T00:05:31.150Z,15.07
2023-05-21T00:06:32.801Z,15.68
2023-05-21T00:07:34.472Z,18.63
2023-05-21T00:08:36.320Z,17.25
2023-05-21T00:09:41.072Z,16.20
2023-05-21T00:10:42.595Z,12.27
2023-05-21T00:11:44.098Z,15.80
2023-05-21T00:12:45.999Z,15.45
2023-05-21T00:13:47.549Z,15.63
2023-05-21T00:14:49.041Z,13.50
2023-05-21T00:15:50.927Z,15.77
2023-05-21T00:16:52.640Z,15.63
2023-05-21T00:17:54.390Z,14.48
2023-05-21T00:18:58.093Z,16.98
2023-05-21T00:20:00.145Z,14.90
2023-05-21T00:21:02.330Z,15.63
2023-05-21T00:22:04.730Z,14.45
2023-05-21T00:23:06.398Z,14.15
2023-05-21T00:24:08.179Z,16.27
2023-05-21T00:25:10.971Z,15.73
2023-05-21T00:26:12.448Z,15.68
2023-05-21T00:27:16.514Z,17.50
2023-05-21T00:28:18.270Z,16.23
2023-05-21T00:29:20.727Z,20.10
2023-05-21T00:30:22.791Z,18.73
2023-05-21T00:31:24.484Z,17.38
2023-05-21T00:32:26.218Z,19.40
2023-05-21T00:33:28.945Z,18.73
2023-05-21T00:34:30.778Z,18.67
2023-05-21T00:35:32.317Z,16.50
2023-05-21T00:36:34.757Z,17.50
2023-05-21T00:37:36.373Z,18.73
2023-05-21T00:38:38.047Z,16.02
2023-05-21T00:39:39.605Z,15.90
2023-05-21T00:40:41.419Z,15.98
2023-05-21T00:41:46.860Z,18.80
2023-05-21T00:42:49.833Z,17.30
2023-05-21T00:43:52.945Z,15.50
2023-05-21T00:44:54.471Z,16.55
2023-05-21T00:45:56.611Z,19.05
2023-05-21T00:46:58.954Z,15.60
2023-05-21T00:48:02.711Z,19.55
2023-05-21T00:49:04.366Z,16.67
2023-05-21T00:50:06.562Z,17.83
2023-05-21T00:51:08.571Z,16.47
2023-05-21T00:52:10.290Z,17.30
2023-05-21T00:53:13.758Z,15.85
2023-05-21T00:54:15.486Z,18.08
2023-05-21T00:55:17.237Z,17.10
2023-05-21T00:56:22.690Z,15.90
2023-05-21T00:57:27.244Z,17.27
2023-05-21T00:58:29.894Z,15.85
2023-05-21T00:59:33.407Z,15.77
2023-05-21T01:00:38.033Z,15.43
2023-05-21T01:01:39.999Z,16.25
2023-05-21T01:02:42.175Z,17.63
2023-05-21T01:03:44.336Z,19.52
2023-05-21T01:04:46.327Z,17.37
2023-05-21T01:05:49.129Z,18.60
2023-05-21T01:06:51.206Z,19.45
2023-05-21T01:07:53.088Z,16.70
2023-05-21T01:08:56.905Z,16.40
2023-05-21T01:09:58.715Z,16.88
2023-05-21T01:11:02.482Z,16.85
2023-05-21T01:12:04.932Z,15.55
2023-05-21T01:13:07.318Z,17.85
2023-05-21T01:14:12.645Z,17.33
2023-05-21T01:15:14.861Z,18.05
2023-05-21T01:16:17.710Z,18.65
2023-05-21T01:17:24.133Z,16.02
2023-05-21T01:18:26.586Z,16.08
2023-05-21T01:19:28.793Z,16.88
2023-05-21T01:20:32.274Z,17.05
2023-05-21T01:21:37.423Z,17.20
2023-05-21T01:22:49.183Z,17.77
2023-05-21T01:23:50.848Z,15.60
2023-05-21T01:24:55.324Z,16.60
2023-05-21T01:25:57.191Z,17.70
2023-05-21T01:27:01.097Z,19.00
2023-05-21T01:28:02.629Z,18.88
2023-05-21T01:29:12.945Z,17.92
2023-05-21T01:30:16.352Z,19.67
2023-05-21T01:31:29.147Z,20.52
2023-05-21T01:32:38.262Z,21.63
2023-05-21T01:33:48.804Z,21.80
2023-05-21T01:35:01.975Z,22.20
2023-05-21T01:36:16.210Z,21.48
2023-05-21T01:37:22.816Z,21.48
2023-05-21T01:38:48.084Z,20.08
2023-05-21T01:39:56.967Z,21.67
2023-05-21T01:41:06.546Z,19.23
2023-05-21T01:42:11.109Z,22.25
2023-05-21T01:43:14.436Z,20.70
2023-05-21T01:44:19.116Z,21.48
2023-05-21T01:45:23.879Z,20.92
2023-05-21T01:46:29.044Z,21.52
2023-05-21T01:47:33.016Z,22.77
2023-05-21T01:48:35.598Z,20.02
2023-05-21T01:49:37.553Z,24.35
2023-05-21T01:50:41.008Z,22.27
2023-05-21T01:51:43.213Z,19.92
2023-05-21T01:52:56.916Z,21.80
2023-05-21T01:53:58.645Z,20.45
2023-05-21T01:55:00.348Z,20.88
2023-05-21T01:56:02.937Z,20.30
2023-05-21T01:57:05.162Z,20.60
2023-05-21T01:58:06.690Z,20.35
2023-05-21T01:59:08.824Z,22.63
2023-05-21T02:00:11.636Z,20.10
2023-05-21T02:01:21.008Z,24.20
2023-05-21T02:02:22.514Z,19.80
2023-05-21T02:03:27.359Z,19.00
2023-05-21T02:04:28.955Z,21.52
2023-05-21T02:05:30.557Z,20.92
2023-05-21T02:06:32.703Z,23.17
2023-05-21T02:07:34.198Z,20.70
2023-05-21T02:08:36.095Z,20.08
2023-05-21T02:09:37.757Z,20.57
2023-05-21T02:10:39.271Z,20.20
2023-05-21T02:11:40.893Z,23.45
2023-05-21T02:12:43.175Z,21.02
2023-05-21T02:13:46.022Z,19.27
2023-05-21T02:14:50.313Z,20.33
2023-05-21T02:15:54.617Z,23.30
2023-05-21T02:16:57.976Z,23.63
2023-05-21T02:17:59.676Z,23.23
2023-05-21T02:19:01.288Z,22.77
2023-05-21T02:20:11.422Z,20.77
2023-05-21T02:21:13.034Z,22.63
2023-05-21T02:22:14.562Z,20.90
2023-05-21T02:23:16.187Z,22.90
2023-05-21T02:24:18.128Z,19.75
2023-05-21T02:25:19.886Z,20.88
2023-05-21T02:26:22.699Z,20.52
2023-05-21T02:27:24.525Z,23.95
2023-05-21T02:28:27.505Z,23.67
2023-05-21T02:29:29.341Z,24.65
2023-05-21T02:30:31.149Z,22.35
2023-05-21T02:31:32.651Z,24.20
2023-05-21T02:32:35.082Z,26.00
2023-05-21T02:33:36.772Z,23.15
2023-05-21T02:34:42.246Z,24.35
2023-05-21T02:35:44.618Z,23.50
2023-05-21T02:36:52.162Z,23.55
2023-05-21T02:37:54.314Z,22.70
2023-05-21T02:38:57.722Z,23.80
2023-05-21T02:39:59.782Z,24.17
2023-05-21T02:41:01.809Z,24.63
2023-05-21T02:42:03.417Z,24.95
2023-05-21T02:43:05.096Z,27.08
2023-05-21T02:44:07.111Z,25.27
2023-05-21T02:45:10.022Z,25.35
2023-05-21T02:46:12.814Z,22.92
2023-05-21T02:47:14.914Z,22.20
2023-05-21T02:48:16.704Z,22.10
2023-05-21T02:49:18.958Z,22.85
2023-05-21T02:50:22.842Z,24.85
2023-05-21T02:51:33.560Z,22.30
2023-05-21T02:52:35.444Z,23.17
2023-05-21T02:53:37.068Z,20.98
2023-05-21T02:54:39.341Z,19.88
2023-05-21T02:55:42.012Z,22.92
2023-05-21T02:56:43.509Z,22.73
2023-05-21T02:57:45.017Z,21.40
2023-05-21T02:58:46.723Z,24.90
2023-05-21T02:59:48.426Z,22.95
2023-05-21T03:00:50.014Z,21.98
2023-05-21T03:01:51.723Z,23.52
2023-05-21T03:02:53.475Z,24.05
2023-05-21T03:03:55.564Z,21.50
2023-05-21T03:04:57.647Z,22.40
2023-05-21T03:05:59.487Z,23.10
2023-05-21T03:07:02.144Z,21.63
2023-05-21T03:08:03.776Z,22.55
2023-05-21T03:09:05.985Z,24.63
2023-05-21T03:10:07.790Z,25.05
2023-05-21T03:11:09.992Z,25.25
2023-05-21T03:12:11.720Z,23.98
2023-05-21T03:13:13.279Z,23.55
2023-05-21T03:14:15.153Z,21.65
2023-05-21T03:15:16.769Z,26.60
2023-05-21T03:16:18.533Z,22.77
2023-05-21T03:17:20.538Z,23.55
2023-05-21T03:18:23.245Z,24.00
2023-05-21T03:19:24.920Z,23.83
2023-05-21T03:20:28.003Z,20.50
2023-05-21T03:21:30.176Z,23.25
2023-05-21T03:22:31.773Z,22.95
2023-05-21T03:23:33.724Z,21.30
2023-05-21T03:24:36.663Z,25.60
2023-05-21T03:25:38.883Z,23.55
2023-05-21T03:26:40.683Z,23.10
2023-05-21T03:27:42.573Z,27.55
2023-05-21T03:29:04.360Z,23.38
2023-05-21T03:30:07.027Z,24.70
2023-05-21T03:31:17.794Z,22.55
2023-05-21T03:32:24.127Z,23.42
2023-05-21T03:33:31.753Z,22.42
2023-05-21T03:34:36.808Z,24.80
2023-05-21T03:35:38.485Z,22.83
2023-05-21T03:36:40.161Z,24.27
2023-05-21T03:37:41.807Z,23.20
2023-05-21T03:38:43.565Z,24.48
2023-05-21T03:39:45.540Z,23.08
2023-05-21T03:40:47.254Z,26.88
2023-05-21T03:41:49.175Z,26.17
2023-05-21T03:42:58.221Z,26.35
2023-05-21T03:44:00.049Z,25.30
2023-05-21T03:45:07.679Z,25.83
2023-05-21T03:46:12.443Z,24.73
2023-05-21T03:47:32.551Z,23.98
2023-05-21T03:48:35.999Z,25.38
2023-05-21T03:49:37.833Z,23.47
2023-05-21T03:50:39.474Z,25.38
2023-05-21T03:51:41.325Z,25.52
2023-05-21T03:52:46.424Z,23.92
2023-05-21T03:53:48.122Z,26.02
2023-05-21T03:54:49.873Z,21.98
2023-05-21T03:55:55.263Z,25.45
2023-05-21T03:56:59.865Z,26.90
2023-05-21T03:58:02.244Z,27.02
2023-05-21T03:59:04.356Z,26.90
2023-05-21T04:00:09.007Z,27.60
2023-05-21T04:01:17.767Z,26.48
2023-05-21T04:02:21.680Z,26.70
2023-05-21T04:03:23.353Z,25.58
2023-05-21T04:04:25.162Z,25.30
2023-05-21T04:05:26.706Z,25.40
2023-05-21T04:06:28.795Z,25.23
2023-05-21T04:07:31.117Z,26.55
2023-05-21T04:08:32.643Z,25.63
2023-05-21T04:09:36.581Z,26.27
2023-05-21T04:10:38.318Z,25.55
2023-05-21T04:11:39.905Z,26.67
2023-05-21T04:12:41.660Z,24.90
2023-05-21T04:13:43.211Z,27.08
2023-05-21T04:14:44.804Z,26.02
2023-05-21T04:15:46.738Z,23.42
2023-05-21T04:16:49.384Z,25.00
2023-05-21T04:17:52.318Z,25.02
2023-05-21T04:18:55.674Z,24.13
2023-05-21T04:20:00.316Z,24.55
2023-05-21T04:21:02.702Z,26.02
2023-05-21T04:22:05.127Z,26.98
2023-05-21T04:23:06.992Z,23.55
2023-05-21T04:24:08.627Z,23.60
2023-05-21T04:25:36.554Z,27.30
2023-05-21T04:26:42.009Z,24.73
2023-05-21T04:27:47.746Z,25.98
2023-05-21T04:28:50.391Z,25.38
2023-05-21T04:29:52.219Z,26.15
2023-05-21T04:30:54.066Z,25.15
2023-05-21T04:31:56.060Z,25.35
2023-05-21T04:33:00.273Z,26.30
2023-05-21T04:34:02.396Z,26.88
2023-05-21T04:35:04.296Z,24.98
2023-05-21T04:36:09.784Z,24.67
2023-05-21T04:37:12.056Z,23.20
2023-05-21T04:38:14.056Z,25.33
2023-05-21T04:39:17.103Z,24.20
2023-05-21T04:40:24.201Z,28.80
2023-05-21T04:41:25.772Z,28.73
2023-05-21T04:42:27.585Z,26.75
2023-05-21T04:43:31.959Z,27.85
2023-05-21T04:44:35.547Z,28.50
2023-05-21T04:45:38.479Z,23.63
2023-05-21T04:46:41.958Z,24.90
2023-05-21T04:47:43.897Z,23.33
2023-05-21T04:48:46.767Z,25.42
2023-05-21T04:49:48.371Z,28.10
2023-05-21T04:50:50.160Z,22.58
2023-05-21T04:51:51.716Z,24.63
2023-05-21T04:52:54.750Z,24.75
2023-05-21T04:53:58.047Z,28.13
2023-05-21T04:54:59.825Z,25.52
2023-05-21T04:56:03.113Z,23.83
2023-05-21T04:57:06.996Z,25.98
2023-05-21T04:58:12.298Z,24.90
2023-05-21T04:59:14.910Z,23.10
2023-05-21T05:00:17.741Z,23.92
2023-05-21T05:01:23.626Z,25.42
2023-05-21T05:02:25.419Z,23.00
2023-05-21T05:03:27.280Z,21.23
2023-05-21T05:04:29.156Z,20.25
2023-05-21T05:05:31.252Z,23.77
2023-05-21T05:06:32.795Z,27.45
2023-05-21T05:07:34.434Z,24.15
2023-05-21T05:08:36.517Z,24.02
2023-05-21T05:09:39.168Z,24.98
2023-05-21T05:10:40.933Z,24.58
2023-05-21T05:11:42.799Z,23.67
2023-05-21T05:12:44.398Z,26.38
2023-05-21T05:13:46.138Z,21.23
2023-05-21T05:14:47.833Z,20.13
2023-05-21T05:15:51.054Z,22.98
2023-05-21T05:16:54.342Z,20.40
2023-05-21T05:17:56.872Z,22.30
2023-05-21T05:18:59.053Z,21.98
2023-05-21T05:20:01.001Z,23.52
2023-05-21T05:21:03.494Z,21.25
2023-05-21T05:22:05.736Z,20.30
2023-05-21T05:23:07.913Z,22.02
2023-05-21T05:24:09.493Z,24.92
2023-05-21T05:25:11.056Z,21.48
2023-05-21T05:26:12.954Z,24.00
2023-05-21T05:27:14.681Z,25.00
2023-05-21T05:28:16.678Z,25.40
2023-05-21T05:29:18.244Z,21.35
2023-05-21T05:30:20.704Z,21.05
2023-05-21T05:31:22.420Z,24.27
2023-05-21T05:32:24.289Z,22.20
2023-05-21T05:33:25.958Z,22.75
2023-05-21T05:34:28.450Z,19.58
2023-05-21T05:35:30.381Z,23.52
2023-05-21T05:36:32.448Z,22.70
2023-05-21T05:37:34.389Z,21.58
2023-05-21T05:38:36.202Z,22.92
2023-05-21T05:39:37.931Z,20.48
2023-05-21T05:40:39.782Z,20.45
2023-05-21T05:41:41.301Z,23.30
2023-05-21T05:42:42.880Z,23.33
2023-05-21T05:43:48.913Z,23.02
2023-05-21T05:44:51.483Z,22.40
2023-05-21T05:45:53.415Z,20.95
2023-05-21T05:46:55.335Z,21.70
2023-05-21T05:47:56.902Z,21.55
2023-05-21T05:48:58.775Z,21.15
2023-05-21T05:50:00.309Z,19.77
2023-05-21T05:51:01.901Z,23.20
2023-05-21T05:52:03.690Z,20.73
2023-05-21T05:53:05.175Z,22.33
2023-05-21T05:54:06.967Z,20.20
2023-05-21T05:55:12.202Z,18.95
2023-05-21T05:56:13.834Z,18.55
2023-05-21T05:57:16.221Z,18.58
2023-05-21T05:58:20.962Z,20.52
2023-05-21T05:59:43.836Z,18.23
2023-05-21T06:00:46.765Z,18.42
2023-05-21T06:01:48.356Z,18.20
2023-05-21T06:02:51.118Z,19.25
2023-05-21T06:03:53.152Z,18.77
2023-05-21T06:04:54.792Z,20.25
2023-05-21T06:05:56.589Z,19.60
2023-05-21T06:06:59.756Z,19.02
2023-05-21T06:08:01.705Z,19.98
2023-05-21T06:09:03.260Z,19.13
2023-05-21T06:10:06.666Z,18.83
2023-05-21T06:11:08.684Z,21.38
2023-05-21T06:12:12.294Z,17.15
2023-05-21T06:13:16.357Z,17.67
2023-05-21T06:14:18.186Z,18.05
2023-05-21T06:15:20.098Z,16.88
2023-05-21T06:16:21.680Z,17.38
2023-05-21T06:17:23.268Z,17.65
2023-05-21T06:18:25.836Z,20.33
2023-05-21T06:19:28.041Z,19.08
2023-05-21T06:20:30.463Z,16.55
2023-05-21T06:21:32.142Z,20.10
2023-05-21T06:22:33.947Z,19.35
2023-05-21T06:23:37.628Z,17.88
2023-05-21T06:24:39.349Z,19.90
2023-05-21T06:25:41.381Z,17.15
2023-05-21T06:26:43.699Z,17.23
2023-05-21T06:27:46.478Z,16.10
2023-05-21T06:28:54.040Z,18.48
2023-05-21T06:29:55.685Z,18.27
2023-05-21T06:30:57.270Z,18.05
2023-05-21T06:31:59.811Z,16.98
2023-05-21T06:33:02.065Z,18.10
2023-05-21T06:34:04.092Z,16.77
2023-05-21T06:35:06.386Z,15.88
2023-05-21T06:36:08.059Z,17.05
2023-05-21T06:37:09.870Z,19.33
2023-05-21T06:38:11.382Z,17.50
2023-05-21T06:39:12.914Z,14.45
2023-05-21T06:40:14.727Z,18.33
2023-05-21T06:41:16.376Z,15.68
2023-05-21T06:42:27.967Z,17.65
2023-05-21T06:44:04.519Z,15.20
2023-05-21T06:45:41.618Z,16.33
2023-05-21T06:46:56.967Z,15.95
2023-05-21T06:47:58.922Z,18.25
2023-05-21T06:49:01.390Z,19.15
2023-05-21T06:50:03.080Z,15.67
2023-05-21T06:51:04.926Z,14.35
2023-05-21T06:52:07.157Z,15.30
2023-05-21T06:53:08.947Z,15.82
2023-05-21T06:54:10.526Z,15.95
2023-05-21T06:55:14.785Z,17.08
2023-05-21T06:56:37.856Z,16.35
2023-05-21T06:57:39.373Z,18.80
2023-05-21T06:58:41.155Z,15.98
2023-05-21T06:59:42.775Z,14.35
2023-05-21T07:00:44.681Z,16.30
2023-05-21T07:01:46.587Z,15.73
2023-05-21T07:02:48.778Z,17.08
2023-05-21T07:03:50.681Z,15.88
2023-05-21T07:04:53.713Z,16.13
2023-05-21T07:05:55.332Z,17.58
2023-05-21T07:06:56.850Z,17.88
2023-05-21T07:07:59.115Z,15.93
2023-05-21T07:09:00.700Z,17.02
2023-05-21T07:10:02.879Z,16.13
2023-05-21T07:11:04.691Z,14.23
2023-05-21T07:12:07.075Z,19.10
2023-05-21T07:13:08.763Z,14.35
2023-05-21T07:14:10.574Z,14.43
2023-05-21T07:15:13.149Z,17.00
2023-05-21T07:16:16.603Z,15.57
2023-05-21T07:17:18.728Z,13.55
2023-05-21T07:18:21.234Z,11.85
2023-05-21T07:19:22.861Z,12.88
2023-05-21T07:20:24.661Z,14.10
2023-05-21T07:21:29.138Z,15.85
2023-05-21T07:22:30.964Z,13.80
2023-05-21T07:23:33.357Z,13.48
2023-05-21T07:24:34.936Z,12.98
2023-05-21T07:25:36.664Z,13.07
2023-05-21T07:26:39.259Z,12.60
2023-05-21T07:27:41.664Z,14.48
2023-05-21T07:28:43.674Z,14.07
2023-05-21T07:29:46.413Z,14.85
2023-05-21T07:30:48.119Z,12.73
2023-05-21T07:31:54.182Z,13.75
2023-05-21T07:32:55.952Z,15.47
2023-05-21T07:33:58.592Z,14.32
2023-05-21T07:35:03.912Z,13.23
2023-05-21T07:36:06.925Z,13.35
2023-05-21T07:37:08.438Z,12.88
2023-05-21T07:38:10.032Z,12.90
2023-05-21T07:39:12.666Z,13.20
2023-05-21T07:40:14.544Z,12.10
2023-05-21T07:41:18.545Z,12.10
2023-05-21T07:42:21.171Z,13.23
2023-05-21T07:43:22.722Z,13.07
2023-05-21T07:44:24.414Z,15.45
2023-05-21T07:45:26.009Z,13.82
2023-05-21T07:46:27.571Z,15.68
2023-05-21T07:47:31.186Z,13.48
2023-05-21T07:48:35.434Z,12.90
2023-05-21T07:49:37.965Z,13.82
2023-05-21T07:50:39.504Z,12.75
2023-05-21T07:51:41.573Z,12.32
2023-05-21T07:52:43.931Z,13.38
2023-05-21T07:53:46.221Z,13.40
2023-05-21T07:54:50.203Z,12.68
2023-05-21T07:55:52.031Z,14.65
2023-05-21T07:56:58.683Z,12.52
2023-05-21T07:58:20.158Z,12.90
2023-05-21T07:59:23.057Z,11.27
2023-05-21T08:00:24.903Z,11.50
2023-05-21T08:01:33.266Z,12.20
2023-05-21T08:02:35.840Z,10.82
2023-05-21T08:03:38.173Z,12.02
2023-05-21T08:04:41.327Z,11.85
2023-05-21T08:05:48.603Z,9.35
2023-05-21T08:06:51.554Z,10.32
2023-05-21T08:07:53.733Z,12.10
2023-05-21T08:08:56.015Z,12.43
2023-05-21T08:09:59.441Z,12.18
2023-05-21T08:11:01.817Z,10.73
2023-05-21T08:12:04.677Z,10.75
2023-05-21T08:13:06.665Z,9.25
2023-05-21T08:14:08.425Z,15.15
2023-05-21T08:15:10.723Z,13.55
2023-05-21T08:16:17.691Z,11.63
2023-05-21T08:17:19.331Z,11.63
2023-05-21T08:18:20.945Z,12.48
2023-05-21T08:19:23.376Z,11.32
2023-05-21T08:20:26.218Z,11.65
2023-05-21T08:21:27.809Z,12.02
2023-05-21T08:22:30.120Z,13.18
2023-05-21T08:23:31.718Z,11.93
2023-05-21T08:24:34.976Z,13.30
2023-05-21T08:25:37.088Z,11.73
2023-05-21T08:26:39.325Z,11.38
2023-05-21T08:27:40.926Z,13.33
2023-05-21T08:28:43.469Z,10.38
2023-05-21T08:29:45.005Z,11.93
2023-05-21T08:30:46.760Z,9.77
2023-05-21T08:31:48.362Z,11.77
2023-05-21T08:32:50.317Z,12.35
2023-05-21T08:33:56.418Z,13.50
2023-05-21T08:35:10.065Z,11.25
2023-05-21T08:36:29.535Z,14.27
2023-05-21T08:37:38.517Z,15.82
2023-05-21T08:38:52.411Z,12.63
2023-05-21T08:40:00.581Z,11.38
2023-05-21T08:41:08.628Z,11.38
2023-05-21T08:42:35.169Z,14.30
2023-05-21T08:43:39.492Z,14.52
2023-05-21T08:44:44.435Z,14.25
2023-05-21T08:45:53.654Z,13.23
2023-05-21T08:46:59.265Z,12.90
2023-05-21T08:48:00.977Z,13.60
2023-05-21T08:49:12.532Z,12.93
2023-05-21T08:50:18.208Z,12.73
2023-05-21T08:51:21.369Z,14.07
2023-05-21T08:52:26.702Z,12.55
2023-05-21T08:53:29.325Z,14.02
2023-05-21T08:54:32.649Z,12.60
2023-05-21T08:55:35.458Z,13.00
2023-05-21T08:56:40.781Z,12.80
2023-05-21T08:57:44.395Z,12.18
2023-05-21T08:58:49.180Z,13.37
2023-05-21T08:59:54.607Z,11.70
2023-05-21T09:01:01.399Z,11.18
2023-05-21T09:02:04.919Z,11.13
2023-05-21T09:03:12.518Z,12.57
2023-05-21T09:04:21.267Z,13.77
2023-05-21T09:05:27.343Z,12.43
2023-05-21T09:06:29.684Z,12.30
2023-05-21T09:07:38.830Z,13.88
2023-05-21T09:09:06.713Z,12.25
2023-05-21T09:10:19.237Z,11.57
2023-05-21T09:11:21.868Z,13.20
2023-05-21T09:12:29.439Z,12.70
2023-05-21T09:13:35.391Z,12.88
2023-05-21T09:14:43.000Z,14.85
2023-05-21T09:15:53.308Z,10.73
2023-05-21T09:16:56.714Z,12.93
2023-05-21T09:17:58.889Z,12.68
2023-05-21T09:19:22.399Z,12.38
2023-05-21T09:20:28.462Z,13.63
2023-05-21T09:21:36.131Z,11.73
2023-05-21T09:22:48.809Z,10.93
2023-05-21T09:23:58.500Z,12.25
2023-05-21T09:25:04.667Z,11.18
2023-05-21T09:26:12.654Z,11.38
2023-05-21T09:27:18.046Z,12.25
2023-05-21T09:28:19.920Z,13.23
2023-05-21T09:29:21.787Z,11.85
2023-05-21T09:30:26.721Z,14.13
2023-05-21T09:31:29.841Z,11.93
2023-05-21T09:32:31.497Z,11.68
2023-05-21T09:33:33.240Z,11.10
2023-05-21T09:34:36.931Z,12.32
2023-05-21T09:35:45.375Z,12.70
2023-05-21T09:36:49.149Z,14.27
2023-05-21T09:37:53.731Z,12.20
2023-05-21T09:38:55.480Z,12.23
2023-05-21T09:39:57.150Z,14.23
2023-05-21T09:40:59.674Z,12.60
2023-05-21T09:42:03.327Z,11.30
2023-05-21T09:43:05.119Z,11.48
2023-05-21T09:44:06.758Z,11.18
2023-05-21T09:45:11.289Z,11.02
2023-05-21T09:46:13.087Z,11.32
2023-05-21T09:47:19.864Z,10.75
2023-05-21T09:48:35.688Z,10.43
2023-05-21T09:49:38.180Z,13.17
2023-05-21T09:50:40.016Z,12.52
2023-05-21T09:51:43.760Z,12.30
2023-05-21T09:52:45.429Z,11.20
2023-05-21T09:53:50.964Z,13.65
2023-05-21T09:54:53.258Z,13.45
2023-05-21T09:55:57.802Z,12.75
2023-05-21T09:57:01.559Z,10.75
2023-05-21T09:58:04.648Z,11.88
2023-05-21T09:59:06.275Z,10.50
2023-05-21T10:00:09.025Z,11.38
2023-05-21T10:01:15.266Z,11.73
2023-05-21T10:02:21.569Z,12.30
2023-05-21T10:03:26.718Z,11.38
2023-05-21T10:04:30.630Z,12.48
2023-05-21T10:05:33.129Z,12.43
2023-05-21T10:06:42.014Z,11.82
2023-05-21T10:07:52.723Z,12.15
2023-05-21T10:08:58.933Z,11.90
2023-05-21T10:10:03.451Z,11.32
2023-05-21T10:11:05.971Z,12.05
2023-05-21T10:12:08.604Z,10.10
2023-05-21T10:13:14.740Z,11.35
2023-05-21T10:14:25.456Z,11.23
2023-05-21T10:15:31.558Z,12.13
2023-05-21T10:16:34.163Z,13.10
2023-05-21T10:17:36.476Z,12.43
2023-05-21T10:18:40.198Z,10.18
2023-05-21T10:19:42.658Z,10.82
2023-05-21T10:20:45.670Z,12.90
2023-05-21T10:21:48.100Z,10.07
2023-05-21T10:22:50.755Z,11.65
2023-05-21T10:23:53.950Z,11.85
2023-05-21T10:24:56.514Z,10.55
2023-05-21T10:25:59.808Z,12.82
2023-05-21T10:27:03.803Z,11.77
2023-05-21T10:28:07.116Z,10.60
2023-05-21T10:29:09.847Z,12.80
2023-05-21T10:30:14.297Z,11.20
2023-05-21T10:31:16.170Z,11.93
2023-05-21T10:32:20.624Z,11.93
2023-05-21T10:33:25.114Z,11.20
2023-05-21T10:34:28.166Z,12.43
2023-05-21T10:35:29.965Z,12.68
2023-05-21T10:36:32.924Z,12.38
2023-05-21T10:37:36.541Z,11.43
2023-05-21T10:38:39.043Z,10.68
2023-05-21T10:39:41.978Z,12.00
2023-05-21T10:40:43.943Z,9.60
2023-05-21T10:42:18.599Z,9.17
2023-05-21T10:43:48.133Z,9.90
2023-05-21T10:45:32.484Z,10.35
2023-05-21T10:47:01.552Z,11.23
2023-05-21T10:48:17.433Z,9.38
2023-05-21T10:49:53.570Z,8.85
2023-05-21T10:51:13.274Z,9.20
2023-05-21T10:52:39.628Z,11.40
2023-05-21T10:54:08.854Z,9.10
2023-05-21T10:55:21.884Z,10.20
2023-05-21T10:56:58.556Z,10.90
2023-05-21T10:58:11.994Z,10.45
2023-05-21T10:59:33.548Z,9.35
2023-05-21T11:00:35.756Z,11.27
2023-05-21T11:01:40.270Z,9.18
2023-05-21T11:02:43.116Z,9.00
2023-05-21T11:03:47.037Z,8.93
2023-05-21T11:04:57.778Z,10.25
2023-05-21T11:06:02.250Z,9.00
2023-05-21T11:07:03.888Z,9.63
2023-05-21T11:08:05.683Z,11.52
2023-05-21T11:09:16.482Z,8.55
2023-05-21T11:10:38.421Z,11.57
2023-05-21T11:11:43.902Z,22.85
2023-05-21T11:13:07.525Z,17.48
2023-05-21T11:14:27.496Z,12.52
2023-05-21T11:15:29.014Z,8.77
2023-05-21T11:16:31.129Z,10.27
2023-05-21T11:17:44.427Z,10.93
2023-05-21T11:18:46.160Z,9.18
2023-05-21T11:19:47.958Z,9.23
2023-05-21T11:20:52.677Z,10.38
2023-05-21T11:21:55.404Z,11.02
2023-05-21T11:22:58.224Z,8.68
2023-05-21T11:24:02.668Z,9.52
2023-05-21T11:25:04.588Z,13.68
2023-05-21T11:26:07.073Z,9.33
2023-05-21T11:27:08.763Z,8.93
2023-05-21T11:28:10.305Z,9.60
2023-05-21T11:29:12.006Z,9.77
2023-05-21T11:30:18.382Z,9.10
2023-05-21T11:31:27.398Z,9.65
2023-05-21T11:32:29.732Z,9.73
2023-05-21T11:33:31.294Z,9.95
2023-05-21T11:34:46.052Z,10.52
2023-05-21T11:35:47.588Z,9.60
2023-05-21T11:36:49.926Z,8.48
2023-05-21T11:37:53.891Z,9.63
2023-05-21T11:39:12.284Z,9.52
2023-05-21T11:40:17.603Z,10.45
2023-05-21T11:41:20.045Z,10.73
2023-05-21T11:42:52.215Z,9.90
2023-05-21T11:44:01.196Z,9.85
2023-05-21T11:45:04.144Z,11.10
2023-05-21T11:46:05.865Z,9.48
2023-05-21T11:47:09.311Z,8.98
2023-05-21T11:48:13.549Z,9.13
2023-05-21T11:49:16.272Z,10.50
2023-05-21T11:50:18.247Z,14.38
2023-05-21T11:51:21.229Z,9.02
2023-05-21T11:52:23.134Z,10.77
2023-05-21T11:53:24.733Z,8.93
2023-05-21T11:54:26.686Z,8.48
2023-05-21T11:55:28.982Z,9.68
2023-05-21T11:56:31.967Z,11.10
2023-05-21T11:57:33.598Z,8.25
2023-05-21T11:58:35.088Z,8.48
2023-05-21T11:59:37.018Z,9.73
2023-05-21T12:00:42.413Z,8.70
2023-05-21T12:01:44.235Z,7.30
2023-05-21T12:02:53.001Z,7.22
2023-05-21T12:03:55.278Z,8.18
2023-05-21T12:05:01.613Z,8.15
2023-05-21T12:06:06.734Z,7.55
2023-05-21T12:07:13.267Z,7.63
2023-05-21T12:08:27.557Z,9.93
2023-05-21T12:09:29.318Z,16.27
2023-05-21T12:10:30.828Z,9.93
2023-05-21T12:11:32.370Z,8.82
2023-05-21T12:12:45.955Z,9.68
2023-05-21T12:13:55.405Z,8.13
2023-05-21T12:14:58.462Z,8.20
2023-05-21T12:16:00.415Z,8.07
2023-05-21T12:17:06.943Z,8.10
2023-05-21T12:18:08.799Z,8.65
2023-05-21T12:19:11.077Z,7.68
2023-05-21T12:20:15.297Z,8.27
2023-05-21T12:21:16.929Z,10.02
2023-05-21T12:22:19.015Z,10.77
2023-05-21T12:23:26.253Z,7.30
2023-05-21T12:24:27.758Z,8.98
2023-05-21T12:25:30.128Z,8.73
2023-05-21T12:26:33.168Z,8.02
2023-05-21T12:27:37.011Z,8.80
2023-05-21T12:28:38.593Z,7.88
2023-05-21T12:29:42.506Z,8.88
2023-05-21T12:30:44.195Z,8.77
2023-05-21T12:31:49.906Z,8.40
2023-05-21T12:32:51.551Z,8.35
2023-05-21T12:33:53.703Z,7.65
2023-05-21T12:34:56.580Z,7.85
2023-05-21T12:35:58.156Z,7.63
2023-05-21T12:37:00.092Z,8.02
2023-05-21T12:38:03.028Z,7.80
2023-05-21T12:39:04.561Z,7.95
2023-05-21T12:40:09.934Z,7.85
2023-05-21T12:41:11.501Z,8.80
2023-05-21T12:42:14.189Z,8.25
2023-05-21T12:43:15.797Z,8.43
2023-05-21T12:44:17.377Z,7.25
2023-05-21T12:45:19.336Z,8.48
2023-05-21T12:46:21.572Z,8.40
2023-05-21T12:47:27.590Z,9.07
2023-05-21T12:48:29.160Z,10.30
2023-05-21T12:49:37.663Z,10.18
2023-05-21T12:50:40.865Z,8.05
2023-05-21T12:51:45.399Z,11.23
2023-05-21T12:52:46.976Z,9.60
2023-05-21T12:53:48.841Z,7.72
2023-05-21T12:54:54.935Z,9.32
2023-05-21T12:55:56.505Z,7.75
2023-05-21T12:56:58.271Z,8.48
2023-05-21T12:58:03.353Z,8.53
2023-05-21T12:59:04.855Z,8.43
2023-05-21T13:00:11.109Z,8.43
2023-05-21T13:01:13.421Z,7.60
2023-05-21T13:02:17.164Z,9.07
2023-05-21T13:03:19.096Z,9.77
2023-05-21T13:04:21.558Z,6.65
2023-05-21T13:05:23.150Z,7.65
2023-05-21T13:06:26.387Z,7.75
2023-05-21T13:07:29.959Z,8.43
2023-05-21T13:08:31.856Z,7.38
2023-05-21T13:09:33.672Z,8.40
2023-05-21T13:10:35.714Z,8.02
2023-05-21T13:11:37.398Z,8.50
2023-05-21T13:12:39.697Z,8.77
2023-05-21T13:13:41.836Z,8.65
2023-05-21T13:14:43.313Z,7.65
2023-05-21T13:15:44.835Z,7.57
2023-05-21T13:16:47.302Z,8.70
2023-05-21T13:17:50.484Z,7.60
2023-05-21T13:18:52.660Z,10.50
2023-05-21T13:20:12.745Z,13.95
2023-05-21T13:21:14.293Z,7.07
2023-05-21T13:22:15.802Z,7.93
2023-05-21T13:23:17.638Z,7.95
2023-05-21T13:24:19.492Z,8.95
2023-05-21T13:25:24.631Z,7.38
2023-05-21T13:26:26.487Z,7.88
2023-05-21T13:27:28.397Z,7.47
2023-05-21T13:28:30.192Z,9.30
2023-05-21T13:29:31.710Z,8.35
2023-05-21T13:30:33.657Z,7.22
2023-05-21T13:31:35.702Z,7.57
2023-05-21T13:32:37.969Z,8.35
2023-05-21T13:33:39.955Z,7.35
2023-05-21T13:34:41.800Z,7.03
2023-05-21T13:35:45.623Z,7.38
2023-05-21T13:36:47.138Z,7.83
2023-05-21T13:37:49.236Z,7.95
2023-05-21T13:38:50.843Z,7.75
2023-05-21T13:39:52.366Z,10.45
2023-05-21T13:40:53.878Z,6.82
2023-05-21T13:41:55.392Z,7.22
2023-05-21T13:42:56.969Z,7.82
2023-05-21T13:43:59.396Z,6.50
2023-05-21T13:45:01.227Z,6.90
2023-05-21T13:46:03.568Z,8.10
2023-05-21T13:47:06.378Z,7.60
2023-05-21T13:48:07.987Z,7.05
2023-05-21T13:49:09.642Z,6.40
2023-05-21T13:50:12.200Z,7.03
2023-05-21T13:51:19.840Z,8.73